Terminal Aerodrome Forecast
Issued by NWS Quad Cities IA IL

Home | Current Version | Previous Version | Graphics & Text | Print | Product List | Glossary On
Versions: 1 2 3 4 5 6 7 8 9 10 11 12 13 14 15 16 17 18 19 20 21 22
000
FTUS43 KDVN 252320
TAFMLI
TAF
KMLI 252320Z 2600/2624 06012KT P6SM VCSH OVC025
     FM260100 05012KT P6SM SCT030 BKN035
     FM260400 04009KT P6SM SCT030
     FM261500 05009KT P6SM SKC=

USA.gov is the U.S. government's official web portal to all federal, state and local government web resources and services.